sensor_id;sensor_type;location;lat;lon;timestamp;temperature;humidity
18101;DHT22;9177;49.156;8.142;2023-09-30T00:02:13;23.70;99.90
18101;DHT22;9177;49.156;8.142;2023-09-30T00:04:41;23.70;99.90
18101;DHT22;9177;49.156;8.142;2023-09-30T00:07:08;23.70;99.90
18101;DHT22;9177;49.156;8.142;2023-09-30T00:09:35;23.70;99.90
18101;DHT22;9177;49.156;8.142;2023-09-30T00:12:03;23.70;99.90
18101;DHT22;9177;49.156;8.142;2023-09-30T00:14:30;23.70;99.90
18101;DHT22;9177;49.156;8.142;2023-09-30T00:16:58;23.70;99.90
18101;DHT22;9177;49.156;8.142;2023-09-30T00:19:25;23.70;99.90
18101;DHT22;9177;49.156;8.142;2023-09-30T00:21:53;23.70;99.90
18101;DHT22;9177;49.156;8.142;2023-09-30T00:24:20;23.70;99.90
18101;DHT22;9177;49.156;8.142;2023-09-30T00:26:47;23.70;99.90
18101;DHT22;9177;49.156;8.142;2023-09-30T00:29:16;23.70;99.90
18101;DHT22;9177;49.156;8.142;2023-09-30T00:31:43;23.70;99.90
18101;DHT22;9177;49.156;8.142;2023-09-30T00:34:16;23.70;99.90
18101;DHT22;9177;49.156;8.142;2023-09-30T00:36:43;23.70;99.90
18101;DHT22;9177;49.156;8.142;2023-09-30T00:39:11;23.70;99.90
18101;DHT22;9177;49.156;8.142;2023-09-30T00:41:38;23.70;99.90
18101;DHT22;9177;49.156;8.142;2023-09-30T00:44:06;23.70;99.90
18101;DHT22;9177;49.156;8.142;2023-09-30T00:46:35;23.70;99.90
18101;DHT22;9177;49.156;8.142;2023-09-30T00:49:03;23.70;99.90
18101;DHT22;9177;49.156;8.142;2023-09-30T00:51:31;23.60;99.90
18101;DHT22;9177;49.156;8.142;2023-09-30T00:54:00;23.70;99.90
18101;DHT22;9177;49.156;8.142;2023-09-30T00:56:30;23.70;99.90
18101;DHT22;9177;49.156;8.142;2023-09-30T00:58:57;23.70;99.90
18101;DHT22;9177;49.156;8.142;2023-09-30T01:01:24;23.70;99.90
18101;DHT22;9177;49.156;8.142;2023-09-30T01:03:52;23.70;99.90
18101;DHT22;9177;49.156;8.142;2023-09-30T01:06:19;23.60;99.90
18101;DHT22;9177;49.156;8.142;2023-09-30T01:08:46;23.60;99.90
18101;DHT22;9177;49.156;8.142;2023-09-30T01:11:13;23.70;99.90
18101;DHT22;9177;49.156;8.142;2023-09-30T01:13:45;23.70;99.90
18101;DHT22;9177;49.156;8.142;2023-09-30T01:16:17;23.70;99.90
18101;DHT22;9177;49.156;8.142;2023-09-30T01:18:47;23.60;99.90
18101;DHT22;9177;49.156;8.142;2023-09-30T01:21:18;23.60;99.90
18101;DHT22;9177;49.156;8.142;2023-09-30T01:23:46;23.60;99.90
18101;DHT22;9177;49.156;8.142;2023-09-30T01:26:13;23.60;99.90
18101;DHT22;9177;49.156;8.142;2023-09-30T01:28:40;23.60;99.90
18101;DHT22;9177;49.156;8.142;2023-09-30T01:31:07;23.60;99.90
18101;DHT22;9177;49.156;8.142;2023-09-30T01:33:35;23.60;99.90
18101;DHT22;9177;49.156;8.142;2023-09-30T01:36:05;23.60;99.90
18101;DHT22;9177;49.156;8.142;2023-09-30T01:38:32;23.60;99.90
18101;DHT22;9177;49.156;8.142;2023-09-30T01:41:00;23.60;99.90
18101;DHT22;9177;49.156;8.142;2023-09-30T01:43:27;23.60;99.90
18101;DHT22;9177;49.156;8.142;2023-09-30T01:45:54;23.60;99.90
18101;DHT22;9177;49.156;8.142;2023-09-30T01:48:21;23.60;99.90
18101;DHT22;9177;49.156;8.142;2023-09-30T01:50:48;23.60;99.90
18101;DHT22;9177;49.156;8.142;2023-09-30T01:53:14;23.60;99.90
18101;DHT22;9177;49.156;8.142;2023-09-30T01:55:41;23.60;99.90
18101;DHT22;9177;49.156;8.142;2023-09-30T01:58:11;23.60;99.90
18101;DHT22;9177;49.156;8.142;2023-09-30T02:00:38;23.60;99.90
18101;DHT22;9177;49.156;8.142;2023-09-30T02:03:05;23.60;99.90
18101;DHT22;9177;49.156;8.142;2023-09-30T02:05:35;23.60;99.90
18101;DHT22;9177;49.156;8.142;2023-09-30T02:08:04;23.60;99.90
18101;DHT22;9177;49.156;8.142;2023-09-30T02:10:31;23.60;99.90
18101;DHT22;9177;49.156;8.142;2023-09-30T02:12:58;23.60;99.90
18101;DHT22;9177;49.156;8.142;2023-09-30T02:15:27;23.60;99.90
18101;DHT22;9177;49.156;8.142;2023-09-30T02:17:54;23.60;99.90
18101;DHT22;9177;49.156;8.142;2023-09-30T02:20:20;23.60;99.90
18101;DHT22;9177;49.156;8.142;2023-09-30T02:22:51;23.60;99.90
18101;DHT22;9177;49.156;8.142;2023-09-30T02:25:18;23.60;99.90
18101;DHT22;9177;49.156;8.142;2023-09-30T02:27:45;23.60;99.90
18101;DHT22;9177;49.156;8.142;2023-09-30T02:30:12;23.60;99.90
18101;DHT22;9177;49.156;8.142;2023-09-30T02:32:43;23.60;99.90
18101;DHT22;9177;49.156;8.142;2023-09-30T02:35:11;23.60;99.90
18101;DHT22;9177;49.156;8.142;2023-09-30T02:37:39;23.60;99.90
18101;DHT22;9177;49.156;8.142;2023-09-30T02:40:07;23.60;99.90
18101;DHT22;9177;49.156;8.142;2023-09-30T02:42:36;23.60;99.90
18101;DHT22;9177;49.156;8.142;2023-09-30T02:45:03;23.60;99.90
18101;DHT22;9177;49.156;8.142;2023-09-30T02:47:30;23.60;99.90
18101;DHT22;9177;49.156;8.142;2023-09-30T02:49:59;23.60;99.90
18101;DHT22;9177;49.156;8.142;2023-09-30T02:52:26;23.60;99.90
18101;DHT22;9177;49.156;8.142;2023-09-30T02:54:52;23.60;99.90
18101;DHT22;9177;49.156;8.142;2023-09-30T02:57:20;23.60;99.90
18101;DHT22;9177;49.156;8.142;2023-09-30T02:59:47;23.60;99.90
18101;DHT22;9177;49.156;8.142;2023-09-30T03:02:17;23.60;99.90
18101;DHT22;9177;49.156;8.142;2023-09-30T03:04:44;23.60;99.90
18101;DHT22;9177;49.156;8.142;2023-09-30T03:07:14;23.60;99.90
18101;DHT22;9177;49.156;8.142;2023-09-30T03:09:41;23.60;99.90
18101;DHT22;9177;49.156;8.142;2023-09-30T03:12:11;23.60;99.90
18101;DHT22;9177;49.156;8.142;2023-09-30T03:14:38;23.60;99.90
18101;DHT22;9177;49.156;8.142;2023-09-30T03:17:06;23.60;99.90
18101;DHT22;9177;49.156;8.142;2023-09-30T03:19:37;23.60;99.90
18101;DHT22;9177;49.156;8.142;2023-09-30T03:22:03;23.60;99.90
18101;DHT22;9177;49.156;8.142;2023-09-30T03:24:32;23.60;99.90
18101;DHT22;9177;49.156;8.142;2023-09-30T03:27:00;23.60;99.90
18101;DHT22;9177;49.156;8.142;2023-09-30T03:29:27;23.60;99.90
18101;DHT22;9177;49.156;8.142;2023-09-30T03:31:54;23.60;99.90
18101;DHT22;9177;49.156;8.142;2023-09-30T03:34:22;23.60;99.90
18101;DHT22;9177;49.156;8.142;2023-09-30T03:36:48;23.60;99.90
18101;DHT22;9177;49.156;8.142;2023-09-30T03:39:15;23.60;99.90
18101;DHT22;9177;49.156;8.142;2023-09-30T03:41:53;23.60;99.90
18101;DHT22;9177;49.156;8.142;2023-09-30T03:44:20;23.60;99.90
18101;DHT22;9177;49.156;8.142;2023-09-30T03:46:48;23.50;99.90
18101;DHT22;9177;49.156;8.142;2023-09-30T03:49:15;23.50;99.90
18101;DHT22;9177;49.156;8.142;2023-09-30T03:51:42;23.60;99.90
18101;DHT22;9177;49.156;8.142;2023-09-30T03:54:09;23.60;99.90
18101;DHT22;9177;49.156;8.142;2023-09-30T03:56:37;23.60;99.90
18101;DHT22;9177;49.156;8.142;2023-09-30T03:59:05;23.60;99.90
18101;DHT22;9177;49.156;8.142;2023-09-30T04:01:32;23.50;99.90
18101;DHT22;9177;49.156;8.142;2023-09-30T04:03:59;23.60;99.90
18101;DHT22;9177;49.156;8.142;2023-09-30T04:06:26;23.50;99.90
18101;DHT22;9177;49.156;8.142;2023-09-30T04:08:54;23.60;99.90
18101;DHT22;9177;49.156;8.142;2023-09-30T04:11:21;23.50;99.90
18101;DHT22;9177;49.156;8.142;2023-09-30T04:13:50;23.50;99.90
18101;DHT22;9177;49.156;8.142;2023-09-30T04:16:18;23.50;99.90
18101;DHT22;9177;49.156;8.142;2023-09-30T04:18:45;23.50;99.90
18101;DHT22;9177;49.156;8.142;2023-09-30T04:21:12;23.50;99.90
18101;DHT22;9177;49.156;8.142;2023-09-30T04:23:39;23.50;99.90
18101;DHT22;9177;49.156;8.142;2023-09-30T04:26:07;23.50;99.90
18101;DHT22;9177;49.156;8.142;2023-09-30T04:28:35;23.50;99.90
18101;DHT22;9177;49.156;8.142;2023-09-30T04:31:02;23.50;99.90
18101;DHT22;9177;49.156;8.142;2023-09-30T04:33:30;23.50;99.90
18101;DHT22;9177;49.156;8.142;2023-09-30T04:35:58;23.50;99.90
18101;DHT22;9177;49.156;8.142;2023-09-30T04:38:25;23.50;99.90
18101;DHT22;9177;49.156;8.142;2023-09-30T04:40:54;23.50;99.90
18101;DHT22;9177;49.156;8.142;2023-09-30T04:43:23;23.50;99.90
18101;DHT22;9177;49.156;8.142;2023-09-30T04:45:55;23.50;99.90
18101;DHT22;9177;49.156;8.142;2023-09-30T04:48:22;23.50;99.90
18101;DHT22;9177;49.156;8.142;2023-09-30T04:50:51;23.50;99.90
18101;DHT22;9177;49.156;8.142;2023-09-30T04:53:18;23.50;99.90
18101;DHT22;9177;49.156;8.142;2023-09-30T04:55:45;23.50;99.90
18101;DHT22;9177;49.156;8.142;2023-09-30T04:58:13;23.50;99.90
18101;DHT22;9177;49.156;8.142;2023-09-30T05:00:40;23.50;99.90
18101;DHT22;9177;49.156;8.142;2023-09-30T05:03:07;23.50;99.90
18101;DHT22;9177;49.156;8.142;2023-09-30T05:05:34;23.50;99.90
18101;DHT22;9177;49.156;8.142;2023-09-30T05:08:03;23.50;99.90
18101;DHT22;9177;49.156;8.142;2023-09-30T05:10:29;23.50;99.90
18101;DHT22;9177;49.156;8.142;2023-09-30T05:12:56;23.50;99.90
18101;DHT22;9177;49.156;8.142;2023-09-30T05:15:23;23.50;99.90
18101;DHT22;9177;49.156;8.142;2023-09-30T05:17:51;23.50;99.90
18101;DHT22;9177;49.156;8.142;2023-09-30T05:20:21;23.40;99.90
18101;DHT22;9177;49.156;8.142;2023-09-30T05:22:50;23.40;99.90
18101;DHT22;9177;49.156;8.142;2023-09-30T05:25:19;23.40;99.90
18101;DHT22;9177;49.156;8.142;2023-09-30T05:27:50;23.40;99.90
18101;DHT22;9177;49.156;8.142;2023-09-30T05:30:17;23.40;99.90
18101;DHT22;9177;49.156;8.142;2023-09-30T05:32:46;23.40;99.90
18101;DHT22;9177;49.156;8.142;2023-09-30T05:35:13;23.40;99.90
18101;DHT22;9177;49.156;8.142;2023-09-30T05:37:42;23.40;99.90
18101;DHT22;9177;49.156;8.142;2023-09-30T05:40:11;23.40;99.90
18101;DHT22;9177;49.156;8.142;2023-09-30T05:42:47;23.40;99.90
18101;DHT22;9177;49.156;8.142;2023-09-30T05:45:15;23.30;99.90
18101;DHT22;9177;49.156;8.142;2023-09-30T05:47:44;23.40;99.90
18101;DHT22;9177;49.156;8.142;2023-09-30T05:50:11;23.40;99.90
18101;DHT22;9177;49.156;8.142;2023-09-30T05:52:41;23.40;99.90
18101;DHT22;9177;49.156;8.142;2023-09-30T05:55:09;23.30;99.90
18101;DHT22;9177;49.156;8.142;2023-09-30T05:57:36;23.30;99.90
18101;DHT22;9177;49.156;8.142;2023-09-30T06:00:05;23.30;99.90
18101;DHT22;9177;49.156;8.142;2023-09-30T06:02:46;23.30;99.90
18101;DHT22;9177;49.156;8.142;2023-09-30T06:05:13;23.30;99.90
18101;DHT22;9177;49.156;8.142;2023-09-30T06:07:41;23.30;99.90
18101;DHT22;9177;49.156;8.142;2023-09-30T06:10:11;23.30;99.90
18101;DHT22;9177;49.156;8.142;2023-09-30T06:12:38;23.30;99.90
18101;DHT22;9177;49.156;8.142;2023-09-30T06:15:08;23.30;99.90
18101;DHT22;9177;49.156;8.142;2023-09-30T06:17:36;23.30;99.90
18101;DHT22;9177;49.156;8.142;2023-09-30T06:20:04;23.30;99.90
18101;DHT22;9177;49.156;8.142;2023-09-30T06:22:41;23.30;99.90
18101;DHT22;9177;49.156;8.142;2023-09-30T06:25:09;23.30;99.90
18101;DHT22;9177;49.156;8.142;2023-09-30T06:27:36;23.30;99.90
18101;DHT22;9177;49.156;8.142;2023-09-30T06:30:04;23.40;99.90
18101;DHT22;9177;49.156;8.142;2023-09-30T06:32:33;23.40;99.90
18101;DHT22;9177;49.156;8.142;2023-09-30T06:35:01;23.40;99.90
18101;DHT22;9177;49.156;8.142;2023-09-30T06:37:28;23.40;99.90
18101;DHT22;9177;49.156;8.142;2023-09-30T06:39:56;23.40;99.90
18101;DHT22;9177;49.156;8.142;2023-09-30T06:42:24;23.40;99.90
18101;DHT22;9177;49.156;8.142;2023-09-30T06:44:53;23.40;99.90
18101;DHT22;9177;49.156;8.142;2023-09-30T06:47:20;23.40;99.90
18101;DHT22;9177;49.156;8.142;2023-09-30T06:49:48;23.40;99.90
18101;DHT22;9177;49.156;8.142;2023-09-30T06:52:15;23.40;99.90
18101;DHT22;9177;49.156;8.142;2023-09-30T06:54:42;23.40;99.90
18101;DHT22;9177;49.156;8.142;2023-09-30T06:57:10;23.40;99.90
18101;DHT22;9177;49.156;8.142;2023-09-30T06:59:36;23.40;99.90
18101;DHT22;9177;49.156;8.142;2023-09-30T07:02:04;23.40;99.90
18101;DHT22;9177;49.156;8.142;2023-09-30T07:04:31;23.40;99.90
18101;DHT22;9177;49.156;8.142;2023-09-30T07:06:59;23.50;99.90
18101;DHT22;9177;49.156;8.142;2023-09-30T07:09:26;23.50;99.90
18101;DHT22;9177;49.156;8.142;2023-09-30T07:11:53;23.50;99.90
18101;DHT22;9177;49.156;8.142;2023-09-30T07:14:20;23.50;99.90
18101;DHT22;9177;49.156;8.142;2023-09-30T07:16:47;23.60;99.90
18101;DHT22;9177;49.156;8.142;2023-09-30T07:19:14;23.60;99.90
18101;DHT22;9177;49.156;8.142;2023-09-30T07:21:42;23.50;99.90
18101;DHT22;9177;49.156;8.142;2023-09-30T07:24:10;23.60;99.90
18101;DHT22;9177;49.156;8.142;2023-09-30T07:26:37;23.60;99.90
18101;DHT22;9177;49.156;8.142;2023-09-30T07:29:04;23.60;99.90
18101;DHT22;9177;49.156;8.142;2023-09-30T07:31:34;23.60;99.90
18101;DHT22;9177;49.156;8.142;2023-09-30T07:34:02;23.60;99.90
18101;DHT22;9177;49.156;8.142;2023-09-30T07:36:29;23.70;99.90
18101;DHT22;9177;49.156;8.142;2023-09-30T07:38:56;23.60;99.90
18101;DHT22;9177;49.156;8.142;2023-09-30T07:41:24;23.70;99.90
18101;DHT22;9177;49.156;8.142;2023-09-30T07:43:51;23.70;99.90
18101;DHT22;9177;49.156;8.142;2023-09-30T07:46:18;23.70;99.90
18101;DHT22;9177;49.156;8.142;2023-09-30T07:48:45;23.70;99.90
18101;DHT22;9177;49.156;8.142;2023-09-30T07:51:13;23.70;99.90
18101;DHT22;9177;49.156;8.142;2023-09-30T07:53:40;23.70;99.90
18101;DHT22;9177;49.156;8.142;2023-09-30T07:56:08;23.80;99.90
18101;DHT22;9177;49.156;8.142;2023-09-30T07:58:36;23.80;99.90
18101;DHT22;9177;49.156;8.142;2023-09-30T08:01:03;23.80;99.90
18101;DHT22;9177;49.156;8.142;2023-09-30T08:03:31;23.80;99.90
18101;DHT22;9177;49.156;8.142;2023-09-30T08:05:59;23.90;99.90
18101;DHT22;9177;49.156;8.142;2023-09-30T08:08:27;23.90;99.90
18101;DHT22;9177;49.156;8.142;2023-09-30T08:10:55;23.90;99.90
18101;DHT22;9177;49.156;8.142;2023-09-30T08:13:22;23.90;99.90
18101;DHT22;9177;49.156;8.142;2023-09-30T08:15:51;23.90;99.90
18101;DHT22;9177;49.156;8.142;2023-09-30T08:18:19;23.90;99.90
18101;DHT22;9177;49.156;8.142;2023-09-30T08:20:46;23.90;99.90
18101;DHT22;9177;49.156;8.142;2023-09-30T08:23:16;24.00;99.90
18101;DHT22;9177;49.156;8.142;2023-09-30T08:25:47;24.00;99.90
18101;DHT22;9177;49.156;8.142;2023-09-30T08:28:14;24.00;99.90
18101;DHT22;9177;49.156;8.142;2023-09-30T08:30:42;24.00;99.90
18101;DHT22;9177;49.156;8.142;2023-09-30T08:33:14;24.00;99.90
18101;DHT22;9177;49.156;8.142;2023-09-30T08:35:42;24.00;99.90
18101;DHT22;9177;49.156;8.142;2023-09-30T08:38:09;24.10;99.90
18101;DHT22;9177;49.156;8.142;2023-09-30T08:40:38;24.10;99.90
18101;DHT22;9177;49.156;8.142;2023-09-30T08:43:06;24.00;99.90
18101;DHT22;9177;49.156;8.142;2023-09-30T08:45:39;24.10;99.90
18101;DHT22;9177;49.156;8.142;2023-09-30T08:48:11;24.10;99.90
18101;DHT22;9177;49.156;8.142;2023-09-30T08:50:39;24.10;99.90
18101;DHT22;9177;49.156;8.142;2023-09-30T08:53:10;24.10;99.90
18101;DHT22;9177;49.156;8.142;2023-09-30T08:55:38;24.20;99.90
18101;DHT22;9177;49.156;8.142;2023-09-30T08:58:07;24.10;99.90
18101;DHT22;9177;49.156;8.142;2023-09-30T09:00:35;24.20;99.90
18101;DHT22;9177;49.156;8.142;2023-09-30T09:03:03;24.20;99.90
18101;DHT22;9177;49.156;8.142;2023-09-30T09:05:32;24.20;99.90
18101;DHT22;9177;49.156;8.142;2023-09-30T09:08:00;24.20;99.90
18101;DHT22;9177;49.156;8.142;2023-09-30T09:10:27;24.20;99.90
18101;DHT22;9177;49.156;8.142;2023-09-30T09:12:55;24.20;99.90
18101;DHT22;9177;49.156;8.142;2023-09-30T09:15:25;24.20;99.90
18101;DHT22;9177;49.156;8.142;2023-09-30T09:17:52;24.20;99.90
18101;DHT22;9177;49.156;8.142;2023-09-30T09:20:21;24.20;99.90
18101;DHT22;9177;49.156;8.142;2023-09-30T09:22:52;24.20;99.90
18101;DHT22;9177;49.156;8.142;2023-09-30T09:25:21;24.20;99.90
18101;DHT22;9177;49.156;8.142;2023-09-30T09:27:50;24.20;99.90
18101;DHT22;9177;49.156;8.142;2023-09-30T09:30:18;24.20;99.90
18101;DHT22;9177;49.156;8.142;2023-09-30T09:32:53;24.30;99.90
18101;DHT22;9177;49.156;8.142;2023-09-30T09:35:21;24.30;99.90
18101;DHT22;9177;49.156;8.142;2023-09-30T09:38:04;24.30;99.90
18101;DHT22;9177;49.156;8.142;2023-09-30T09:40:33;24.30;99.90
18101;DHT22;9177;49.156;8.142;2023-09-30T09:43:01;24.30;99.90
18101;DHT22;9177;49.156;8.142;2023-09-30T09:45:33;24.30;99.90
18101;DHT22;9177;49.156;8.142;2023-09-30T09:48:01;24.30;99.90
18101;DHT22;9177;49.156;8.142;2023-09-30T09:50:30;24.30;99.90
18101;DHT22;9177;49.156;8.142;2023-09-30T09:52:59;24.40;99.90
18101;DHT22;9177;49.156;8.142;2023-09-30T09:55:27;24.40;99.90
18101;DHT22;9177;49.156;8.142;2023-09-30T09:57:58;24.40;99.90
18101;DHT22;9177;49.156;8.142;2023-09-30T10:00:26;24.40;99.90
18101;DHT22;9177;49.156;8.142;2023-09-30T10:02:55;24.40;99.90
18101;DHT22;9177;49.156;8.142;2023-09-30T10:05:23;24.40;99.90
18101;DHT22;9177;49.156;8.142;2023-09-30T10:07:52;24.40;99.90
18101;DHT22;9177;49.156;8.142;2023-09-30T10:10:22;24.40;99.90
18101;DHT22;9177;49.156;8.142;2023-09-30T10:12:50;24.50;99.90
18101;DHT22;9177;49.156;8.142;2023-09-30T10:15:39;24.50;99.90
18101;DHT22;9177;49.156;8.142;2023-09-30T10:18:10;24.50;99.90
18101;DHT22;9177;49.156;8.142;2023-09-30T10:20:38;24.60;99.90
18101;DHT22;9177;49.156;8.142;2023-09-30T10:23:25;24.60;99.90
18101;DHT22;9177;49.156;8.142;2023-09-30T10:28:41;24.60;99.90
18101;DHT22;9177;49.156;8.142;2023-09-30T10:31:12;24.60;99.90
18101;DHT22;9177;49.156;8.142;2023-09-30T10:36:43;24.70;99.90
18101;DHT22;9177;49.156;8.142;2023-09-30T10:39:14;24.70;99.90
18101;DHT22;9177;49.156;8.142;2023-09-30T10:41:52;24.70;99.90
18101;DHT22;9177;49.156;8.142;2023-09-30T10:44:35;24.70;99.90
18101;DHT22;9177;49.156;8.142;2023-09-30T10:47:35;24.80;99.90
18101;DHT22;9177;49.156;8.142;2023-09-30T10:50:03;24.80;99.90
18101;DHT22;9177;49.156;8.142;2023-09-30T10:52:31;24.80;99.90
18101;DHT22;9177;49.156;8.142;2023-09-30T10:55:03;24.80;99.90
18101;DHT22;9177;49.156;8.142;2023-09-30T10:57:34;24.80;99.90
18101;DHT22;9177;49.156;8.142;2023-09-30T11:00:08;24.80;99.90
18101;DHT22;9177;49.156;8.142;2023-09-30T11:02:48;24.90;99.90
18101;DHT22;9177;49.156;8.142;2023-09-30T11:05:17;25.00;99.90
18101;DHT22;9177;49.156;8.142;2023-09-30T11:07:46;25.00;99.90
18101;DHT22;9177;49.156;8.142;2023-09-30T11:10:16;25.00;99.90
18101;DHT22;9177;49.156;8.142;2023-09-30T11:12:55;25.00;99.90
18101;DHT22;9177;49.156;8.142;2023-09-30T11:15:23;25.10;99.90
18101;DHT22;9177;49.156;8.142;2023-09-30T11:17:51;25.20;99.90
18101;DHT22;9177;49.156;8.142;2023-09-30T11:20:19;25.20;99.90
18101;DHT22;9177;49.156;8.142;2023-09-30T11:22:47;25.30;99.80
18101;DHT22;9177;49.156;8.142;2023-09-30T11:25:17;25.30;99.70
18101;DHT22;9177;49.156;8.142;2023-09-30T11:27:45;25.20;99.80
18101;DHT22;9177;49.156;8.142;2023-09-30T11:30:15;25.20;99.90
18101;DHT22;9177;49.156;8.142;2023-09-30T11:32:42;25.20;99.80
18101;DHT22;9177;49.156;8.142;2023-09-30T11:35:10;25.20;99.80
18101;DHT22;9177;49.156;8.142;2023-09-30T11:37:48;25.30;99.70
18101;DHT22;9177;49.156;8.142;2023-09-30T11:40:16;25.30;99.70
18101;DHT22;9177;49.156;8.142;2023-09-30T11:43:07;25.30;99.80
18101;DHT22;9177;49.156;8.142;2023-09-30T11:45:35;25.20;99.80
18101;DHT22;9177;49.156;8.142;2023-09-30T11:48:16;25.20;99.90
18101;DHT22;9177;49.156;8.142;2023-09-30T11:50:48;25.20;99.90
18101;DHT22;9177;49.156;8.142;2023-09-30T11:53:17;25.20;99.90
18101;DHT22;9177;49.156;8.142;2023-09-30T11:55:46;25.30;99.90
18101;DHT22;9177;49.156;8.142;2023-09-30T11:58:14;25.30;99.80
18101;DHT22;9177;49.156;8.142;2023-09-30T12:00:45;25.40;99.80
18101;DHT22;9177;49.156;8.142;2023-09-30T12:03:16;25.40;99.70
18101;DHT22;9177;49.156;8.142;2023-09-30T12:05:43;25.40;99.70
18101;DHT22;9177;49.156;8.142;2023-09-30T12:08:11;25.40;99.70
18101;DHT22;9177;49.156;8.142;2023-09-30T12:10:39;25.30;99.70
18101;DHT22;9177;49.156;8.142;2023-09-30T12:13:07;25.30;99.60
18101;DHT22;9177;49.156;8.142;2023-09-30T12:15:37;25.30;99.50
18101;DHT22;9177;49.156;8.142;2023-09-30T12:18:06;25.40;99.30
18101;DHT22;9177;49.156;8.142;2023-09-30T12:20:34;25.30;99.20
18101;DHT22;9177;49.156;8.142;2023-09-30T12:23:01;25.20;99.10
18101;DHT22;9177;49.156;8.142;2023-09-30T12:25:30;25.20;99.20
18101;DHT22;9177;49.156;8.142;2023-09-30T12:27:59;25.10;99.20
18101;DHT22;9177;49.156;8.142;2023-09-30T12:30:26;25.00;99.20
18101;DHT22;9177;49.156;8.142;2023-09-30T12:32:52;25.00;99.30
18101;DHT22;9177;49.156;8.142;2023-09-30T12:35:22;24.90;99.30
18101;DHT22;9177;49.156;8.142;2023-09-30T12:37:50;24.90;99.30
18101;DHT22;9177;49.156;8.142;2023-09-30T12:40:18;25.00;99.20
18101;DHT22;9177;49.156;8.142;2023-09-30T12:42:45;25.10;99.10
18101;DHT22;9177;49.156;8.142;2023-09-30T12:45:13;25.10;98.90
18101;DHT22;9177;49.156;8.142;2023-09-30T12:47:40;25.20;98.90
18101;DHT22;9177;49.156;8.142;2023-09-30T12:50:08;25.20;98.90
18101;DHT22;9177;49.156;8.142;2023-09-30T12:52:37;25.30;98.90
18101;DHT22;9177;49.156;8.142;2023-09-30T12:55:05;25.30;98.80
18101;DHT22;9177;49.156;8.142;2023-09-30T12:57:32;25.40;98.80
18101;DHT22;9177;49.156;8.142;2023-09-30T13:00:00;25.40;98.70
18101;DHT22;9177;49.156;8.142;2023-09-30T13:02:28;25.40;98.70
18101;DHT22;9177;49.156;8.142;2023-09-30T13:04:56;25.50;98.60
18101;DHT22;9177;49.156;8.142;2023-09-30T13:07:23;25.50;98.50
18101;DHT22;9177;49.156;8.142;2023-09-30T13:09:52;25.50;98.50
18101;DHT22;9177;49.156;8.142;2023-09-30T13:12:20;25.50;98.60
18101;DHT22;9177;49.156;8.142;2023-09-30T13:14:47;25.50;98.60
18101;DHT22;9177;49.156;8.142;2023-09-30T13:17:14;25.50;98.60
18101;DHT22;9177;49.156;8.142;2023-09-30T13:19:42;25.40;98.70
18101;DHT22;9177;49.156;8.142;2023-09-30T13:22:09;25.40;98.70
18101;DHT22;9177;49.156;8.142;2023-09-30T13:24:38;25.50;98.60
18101;DHT22;9177;49.156;8.142;2023-09-30T13:27:09;25.60;98.50
18101;DHT22;9177;49.156;8.142;2023-09-30T13:29:36;25.70;98.30
18101;DHT22;9177;49.156;8.142;2023-09-30T13:32:04;25.70;98.30
18101;DHT22;9177;49.156;8.142;2023-09-30T13:34:31;25.70;98.30
18101;DHT22;9177;49.156;8.142;2023-09-30T13:36:58;25.70;98.40
18101;DHT22;9177;49.156;8.142;2023-09-30T13:39:25;25.60;98.40
18101;DHT22;9177;49.156;8.142;2023-09-30T13:41:53;25.60;98.50
18101;DHT22;9177;49.156;8.142;2023-09-30T13:44:21;25.70;98.40
18101;DHT22;9177;49.156;8.142;2023-09-30T13:46:49;25.70;98.40
18101;DHT22;9177;49.156;8.142;2023-09-30T13:49:16;25.80;98.40
18101;DHT22;9177;49.156;8.142;2023-09-30T13:51:43;25.80;98.20
18101;DHT22;9177;49.156;8.142;2023-09-30T13:54:11;25.80;98.20
18101;DHT22;9177;49.156;8.142;2023-09-30T13:56:38;25.90;98.20
18101;DHT22;9177;49.156;8.142;2023-09-30T13:59:05;25.80;98.20
18101;DHT22;9177;49.156;8.142;2023-09-30T14:01:34;25.70;98.30
18101;DHT22;9177;49.156;8.142;2023-09-30T14:04:02;25.60;98.50
18101;DHT22;9177;49.156;8.142;2023-09-30T14:06:30;25.50;98.70
18101;DHT22;9177;49.156;8.142;2023-09-30T14:08:57;25.40;98.70
18101;DHT22;9177;49.156;8.142;2023-09-30T14:11:25;25.40;98.70
18101;DHT22;9177;49.156;8.142;2023-09-30T14:13:53;25.50;98.80
18101;DHT22;9177;49.156;8.142;2023-09-30T14:16:20;25.40;98.70
18101;DHT22;9177;49.156;8.142;2023-09-30T14:18:49;25.40;98.80
18101;DHT22;9177;49.156;8.142;2023-09-30T14:21:16;25.40;98.80
18101;DHT22;9177;49.156;8.142;2023-09-30T14:23:44;25.50;98.80
18101;DHT22;9177;49.156;8.142;2023-09-30T14:26:11;25.40;98.80
18101;DHT22;9177;49.156;8.142;2023-09-30T14:28:41;25.30;99.00
18101;DHT22;9177;49.156;8.142;2023-09-30T14:31:09;25.20;99.10
18101;DHT22;9177;49.156;8.142;2023-09-30T14:33:36;25.20;99.20
18101;DHT22;9177;49.156;8.142;2023-09-30T14:36:05;25.10;99.30
18101;DHT22;9177;49.156;8.142;2023-09-30T14:38:33;25.00;99.40
18101;DHT22;9177;49.156;8.142;2023-09-30T14:41:00;25.00;99.50
18101;DHT22;9177;49.156;8.142;2023-09-30T14:43:27;25.00;99.60
18101;DHT22;9177;49.156;8.142;2023-09-30T14:45:55;24.90;99.60
18101;DHT22;9177;49.156;8.142;2023-09-30T14:48:22;24.90;99.70
18101;DHT22;9177;49.156;8.142;2023-09-30T14:50:50;24.80;99.80
18101;DHT22;9177;49.156;8.142;2023-09-30T14:53:19;24.80;99.90
18101;DHT22;9177;49.156;8.142;2023-09-30T14:55:46;24.80;99.90
18101;DHT22;9177;49.156;8.142;2023-09-30T14:58:16;24.80;99.90
18101;DHT22;9177;49.156;8.142;2023-09-30T15:00:44;24.90;99.90
18101;DHT22;9177;49.156;8.142;2023-09-30T15:03:12;25.00;99.80
18101;DHT22;9177;49.156;8.142;2023-09-30T15:05:39;25.10;99.60
18101;DHT22;9177;49.156;8.142;2023-09-30T15:08:06;25.10;99.50
18101;DHT22;9177;49.156;8.142;2023-09-30T15:10:36;25.10;99.40
18101;DHT22;9177;49.156;8.142;2023-09-30T15:13:03;25.20;99.40
18101;DHT22;9177;49.156;8.142;2023-09-30T15:15:31;25.30;99.30
18101;DHT22;9177;49.156;8.142;2023-09-30T15:18:02;25.30;99.20
18101;DHT22;9177;49.156;8.142;2023-09-30T15:20:30;25.40;99.20
18101;DHT22;9177;49.156;8.142;2023-09-30T15:22:57;25.40;99.10
18101;DHT22;9177;49.156;8.142;2023-09-30T15:25:25;25.40;99.00
18101;DHT22;9177;49.156;8.142;2023-09-30T15:27:54;25.40;99.10
18101;DHT22;9177;49.156;8.142;2023-09-30T15:30:22;25.40;99.10
18101;DHT22;9177;49.156;8.142;2023-09-30T15:32:49;25.40;99.10
18101;DHT22;9177;49.156;8.142;2023-09-30T15:35:17;25.40;99.20
18101;DHT22;9177;49.156;8.142;2023-09-30T15:37:44;25.40;99.20
18101;DHT22;9177;49.156;8.142;2023-09-30T15:40:11;25.30;99.20
18101;DHT22;9177;49.156;8.142;2023-09-30T15:42:42;25.30;99.20
18101;DHT22;9177;49.156;8.142;2023-09-30T15:45:13;25.30;99.20
18101;DHT22;9177;49.156;8.142;2023-09-30T15:47:43;25.30;99.30
18101;DHT22;9177;49.156;8.142;2023-09-30T15:50:11;25.20;99.30
18101;DHT22;9177;49.156;8.142;2023-09-30T15:52:38;25.20;99.30
18101;DHT22;9177;49.156;8.142;2023-09-30T15:55:06;25.20;99.40
18101;DHT22;9177;49.156;8.142;2023-09-30T15:57:35;25.20;99.40
18101;DHT22;9177;49.156;8.142;2023-09-30T16:00:10;25.10;99.40